sensor_id;sensor_type;location;lat;lon;timestamp;pressure;altitude;pressure_sealevel;temperature;humidity
56042;BME280;48756;41.374;2.066;2023-04-15T00:00:27;100521.31;;;17.35;43.23
56042;BME280;48756;41.374;2.066;2023-04-15T00:02:55;100524.00;;;17.33;42.85
56042;BME280;48756;41.374;2.066;2023-04-15T00:05:21;100520.34;;;17.37;42.94
56042;BME280;48756;41.374;2.066;2023-04-15T00:07:46;100532.56;;;17.38;43.04
56042;BME280;48756;41.374;2.066;2023-04-15T00:10:12;100530.13;;;17.12;44.58
56042;BME280;48756;41.374;2.066;2023-04-15T00:12:38;100538.47;;;17.01;44.67
56042;BME280;48756;41.374;2.066;2023-04-15T00:15:04;100539.47;;;16.97;45.37
56042;BME280;48756;41.374;2.066;2023-04-15T00:17:29;100543.03;;;16.96;44.73
56042;BME280;48756;41.374;2.066;2023-04-15T00:19:55;100545.22;;;16.85;46.11
56042;BME280;48756;41.374;2.066;2023-04-15T00:22:20;100533.13;;;16.81;45.75
56042;BME280;48756;41.374;2.066;2023-04-15T00:24:45;100531.84;;;16.91;46.34
56042;BME280;48756;41.374;2.066;2023-04-15T00:27:10;100535.63;;;16.84;46.18
56042;BME280;48756;41.374;2.066;2023-04-15T00:29:36;100525.78;;;16.89;45.74
56042;BME280;48756;41.374;2.066;2023-04-15T00:32:01;100532.25;;;16.80;46.54
56042;BME280;48756;41.374;2.066;2023-04-15T00:34:27;100526.59;;;16.68;48.13
56042;BME280;48756;41.374;2.066;2023-04-15T00:36:53;100527.88;;;16.33;49.41
56042;BME280;48756;41.374;2.066;2023-04-15T00:39:18;100534.81;;;16.35;50.21
56042;BME280;48756;41.374;2.066;2023-04-15T00:41:44;100541.16;;;16.28;53.87
56042;BME280;48756;41.374;2.066;2023-04-15T00:44:10;100538.09;;;15.92;55.89
56042;BME280;48756;41.374;2.066;2023-04-15T00:46:35;100551.25;;;15.66;58.12
56042;BME280;48756;41.374;2.066;2023-04-15T00:49:05;100555.19;;;15.51;58.48
56042;BME280;48756;41.374;2.066;2023-04-15T00:51:31;100555.16;;;15.52;59.15
56042;BME280;48756;41.374;2.066;2023-04-15T00:53:58;100542.63;;;15.62;59.00
56042;BME280;48756;41.374;2.066;2023-04-15T00:56:23;100543.63;;;15.84;58.39
56042;BME280;48756;41.374;2.066;2023-04-15T00:58:50;100528.66;;;16.11;57.20
56042;BME280;48756;41.374;2.066;2023-04-15T01:01:15;100536.53;;;16.11;58.10
56042;BME280;48756;41.374;2.066;2023-04-15T01:03:41;100539.34;;;15.80;58.47
56042;BME280;48756;41.374;2.066;2023-04-15T01:06:06;100532.72;;;15.95;57.91
56042;BME280;48756;41.374;2.066;2023-04-15T01:08:32;100541.28;;;15.75;57.89
56042;BME280;48756;41.374;2.066;2023-04-15T01:10:58;100542.72;;;15.84;56.27
56042;BME280;48756;41.374;2.066;2023-04-15T01:13:25;100539.22;;;15.57;56.45
56042;BME280;48756;41.374;2.066;2023-04-15T01:15:51;100525.84;;;15.91;55.45
56042;BME280;48756;41.374;2.066;2023-04-15T01:18:17;100538.84;;;15.96;55.33
56042;BME280;48756;41.374;2.066;2023-04-15T01:20:45;100539.97;;;15.88;58.39
56042;BME280;48756;41.374;2.066;2023-04-15T01:23:10;100536.66;;;16.08;56.78
56042;BME280;48756;41.374;2.066;2023-04-15T01:25:36;100541.84;;;15.85;58.11
56042;BME280;48756;41.374;2.066;2023-04-15T01:28:02;100544.41;;;15.86;57.82
56042;BME280;48756;41.374;2.066;2023-04-15T01:30:27;100550.72;;;15.81;55.39
56042;BME280;48756;41.374;2.066;2023-04-15T01:32:53;100554.13;;;15.56;54.23
56042;BME280;48756;41.374;2.066;2023-04-15T01:35:18;100549.19;;;15.47;56.37
56042;BME280;48756;41.374;2.066;2023-04-15T01:37:43;100553.59;;;15.73;57.09
56042;BME280;48756;41.374;2.066;2023-04-15T01:40:09;100543.97;;;15.74;56.66
56042;BME280;48756;41.374;2.066;2023-04-15T01:42:35;100542.13;;;15.76;56.72
56042;BME280;48756;41.374;2.066;2023-04-15T01:45:00;100540.94;;;15.59;58.57
56042;BME280;48756;41.374;2.066;2023-04-15T01:47:26;100546.47;;;15.50;59.65
56042;BME280;48756;41.374;2.066;2023-04-15T01:49:51;100541.44;;;15.71;58.72
56042;BME280;48756;41.374;2.066;2023-04-15T01:52:17;100546.38;;;15.80;59.19
56042;BME280;48756;41.374;2.066;2023-04-15T01:54:42;100550.72;;;15.81;59.22
56042;BME280;48756;41.374;2.066;2023-04-15T01:57:07;100553.72;;;15.70;59.27
56042;BME280;48756;41.374;2.066;2023-04-15T01:59:33;100550.59;;;15.57;59.97
56042;BME280;48756;41.374;2.066;2023-04-15T02:01:59;100557.06;;;15.47;59.93
56042;BME280;48756;41.374;2.066;2023-04-15T02:04:27;100552.94;;;15.39;59.66
56042;BME280;48756;41.374;2.066;2023-04-15T02:06:52;100548.06;;;15.28;59.83
56042;BME280;48756;41.374;2.066;2023-04-15T02:09:18;100546.38;;;15.25;57.59
56042;BME280;48756;41.374;2.066;2023-04-15T02:11:44;100549.63;;;15.33;56.85
56042;BME280;48756;41.374;2.066;2023-04-15T02:14:09;100541.94;;;15.27;54.69
56042;BME280;48756;41.374;2.066;2023-04-15T02:16:35;100535.28;;;15.17;56.34
56042;BME280;48756;41.374;2.066;2023-04-15T02:19:00;100540.47;;;15.19;56.63
56042;BME280;48756;41.374;2.066;2023-04-15T02:21:29;100541.38;;;15.18;56.35
56042;BME280;48756;41.374;2.066;2023-04-15T02:23:54;100546.72;;;15.15;55.66
56042;BME280;48756;41.374;2.066;2023-04-15T02:26:20;100549.69;;;15.04;55.87
56042;BME280;48756;41.374;2.066;2023-04-15T02:28:46;100541.91;;;15.29;55.25
56042;BME280;48756;41.374;2.066;2023-04-15T02:31:12;100534.06;;;15.27;55.73
56042;BME280;48756;41.374;2.066;2023-04-15T02:33:37;100537.00;;;15.18;55.71
56042;BME280;48756;41.374;2.066;2023-04-15T02:36:03;100543.97;;;15.19;55.66
56042;BME280;48756;41.374;2.066;2023-04-15T02:38:28;100542.50;;;15.09;55.51
56042;BME280;48756;41.374;2.066;2023-04-15T02:40:55;100546.28;;;15.00;55.69
56042;BME280;48756;41.374;2.066;2023-04-15T02:43:21;100549.47;;;14.82;56.65
56042;BME280;48756;41.374;2.066;2023-04-15T02:45:46;100549.41;;;14.84;57.57
56042;BME280;48756;41.374;2.066;2023-04-15T02:48:12;100544.97;;;14.86;57.03
56042;BME280;48756;41.374;2.066;2023-04-15T02:50:37;100556.88;;;14.97;57.27
56042;BME280;48756;41.374;2.066;2023-04-15T02:53:05;100548.13;;;14.98;56.87
56042;BME280;48756;41.374;2.066;2023-04-15T02:55:31;100544.88;;;14.89;57.46
56042;BME280;48756;41.374;2.066;2023-04-15T02:57:56;100552.44;;;14.99;57.39
56042;BME280;48756;41.374;2.066;2023-04-15T03:00:25;100552.91;;;14.84;58.22
56042;BME280;48756;41.374;2.066;2023-04-15T03:02:56;100553.72;;;14.86;57.76
56042;BME280;48756;41.374;2.066;2023-04-15T03:05:21;100552.31;;;14.75;57.61
56042;BME280;48756;41.374;2.066;2023-04-15T03:07:50;100552.22;;;14.78;57.12
56042;BME280;48756;41.374;2.066;2023-04-15T03:10:15;100557.78;;;14.67;56.00
56042;BME280;48756;41.374;2.066;2023-04-15T03:12:41;100548.84;;;14.43;56.02
56042;BME280;48756;41.374;2.066;2023-04-15T03:15:06;100553.84;;;14.52;55.34
56042;BME280;48756;41.374;2.066;2023-04-15T03:17:32;100555.59;;;14.19;55.30
56042;BME280;48756;41.374;2.066;2023-04-15T03:19:57;100548.69;;;14.49;53.65
56042;BME280;48756;41.374;2.066;2023-04-15T03:22:22;100554.66;;;14.54;53.62
56042;BME280;48756;41.374;2.066;2023-04-15T03:24:48;100555.81;;;14.44;52.98
56042;BME280;48756;41.374;2.066;2023-04-15T03:27:13;100556.06;;;14.66;52.31
56042;BME280;48756;41.374;2.066;2023-04-15T03:29:38;100557.56;;;14.75;51.00
56042;BME280;48756;41.374;2.066;2023-04-15T03:32:04;100561.25;;;14.67;50.99
56042;BME280;48756;41.374;2.066;2023-04-15T03:34:29;100558.53;;;14.72;50.19
56042;BME280;48756;41.374;2.066;2023-04-15T03:36:55;100565.53;;;14.72;49.56
56042;BME280;48756;41.374;2.066;2023-04-15T03:39:21;100564.91;;;14.91;49.36
56042;BME280;48756;41.374;2.066;2023-04-15T03:41:46;100563.25;;;14.89;48.74
56042;BME280;48756;41.374;2.066;2023-04-15T03:44:12;100559.28;;;14.76;49.35
56042;BME280;48756;41.374;2.066;2023-04-15T03:46:37;100558.97;;;14.86;49.02
56042;BME280;48756;41.374;2.066;2023-04-15T03:49:03;100563.63;;;14.77;49.09
56042;BME280;48756;41.374;2.066;2023-04-15T03:51:29;100558.69;;;14.95;48.69
56042;BME280;48756;41.374;2.066;2023-04-15T03:53:55;100551.03;;;14.88;48.41
56042;BME280;48756;41.374;2.066;2023-04-15T03:56:21;100561.34;;;14.64;49.44
56042;BME280;48756;41.374;2.066;2023-04-15T03:58:46;100556.53;;;14.80;48.27
56042;BME280;48756;41.374;2.066;2023-04-15T04:01:11;100560.06;;;14.79;48.95
56042;BME280;48756;41.374;2.066;2023-04-15T04:03:36;100566.47;;;14.69;49.07
56042;BME280;48756;41.374;2.066;2023-04-15T04:06:02;100573.25;;;14.76;48.73
56042;BME280;48756;41.374;2.066;2023-04-15T04:08:27;100575.22;;;14.68;49.34
56042;BME280;48756;41.374;2.066;2023-04-15T04:10:52;100577.72;;;15.02;48.55
56042;BME280;48756;41.374;2.066;2023-04-15T04:13:18;100582.72;;;14.82;48.59
56042;BME280;48756;41.374;2.066;2023-04-15T04:15:43;100572.03;;;14.58;49.26
56042;BME280;48756;41.374;2.066;2023-04-15T04:18:08;100568.59;;;14.56;49.43
56042;BME280;48756;41.374;2.066;2023-04-15T04:20:34;100569.41;;;14.58;49.17
56042;BME280;48756;41.374;2.066;2023-04-15T04:22:59;100563.84;;;14.69;48.99
56042;BME280;48756;41.374;2.066;2023-04-15T04:25:25;100563.44;;;14.83;48.20
56042;BME280;48756;41.374;2.066;2023-04-15T04:27:51;100567.59;;;14.90;48.50
56042;BME280;48756;41.374;2.066;2023-04-15T04:30:16;100565.72;;;14.95;47.95
56042;BME280;48756;41.374;2.066;2023-04-15T04:32:41;100563.16;;;14.92;48.37
56042;BME280;48756;41.374;2.066;2023-04-15T04:35:07;100577.75;;;14.73;48.52
56042;BME280;48756;41.374;2.066;2023-04-15T04:37:32;100579.38;;;14.77;48.19
56042;BME280;48756;41.374;2.066;2023-04-15T04:39:58;100578.19;;;14.87;48.66
56042;BME280;48756;41.374;2.066;2023-04-15T04:42:23;100574.50;;;14.92;48.97
56042;BME280;48756;41.374;2.066;2023-04-15T04:44:48;100571.66;;;14.70;49.40
56042;BME280;48756;41.374;2.066;2023-04-15T04:47:14;100572.03;;;14.58;48.96
56042;BME280;48756;41.374;2.066;2023-04-15T04:49:39;100579.31;;;14.49;49.29
56042;BME280;48756;41.374;2.066;2023-04-15T04:52:05;100575.03;;;14.45;48.94
56042;BME280;48756;41.374;2.066;2023-04-15T04:54:30;100582.53;;;14.26;50.08
56042;BME280;48756;41.374;2.066;2023-04-15T04:56:56;100578.97;;;14.59;48.93
56042;BME280;48756;41.374;2.066;2023-04-15T04:59:22;100588.34;;;14.68;48.90
56042;BME280;48756;41.374;2.066;2023-04-15T05:01:47;100580.88;;;14.54;49.61
56042;BME280;48756;41.374;2.066;2023-04-15T05:04:12;100579.50;;;14.72;48.57
56042;BME280;48756;41.374;2.066;2023-04-15T05:06:38;100578.00;;;14.63;49.09
56042;BME280;48756;41.374;2.066;2023-04-15T05:09:03;100583.28;;;14.62;49.00
56042;BME280;48756;41.374;2.066;2023-04-15T05:11:28;100588.75;;;14.54;48.93
56042;BME280;48756;41.374;2.066;2023-04-15T05:13:54;100586.00;;;14.59;49.59
56042;BME280;48756;41.374;2.066;2023-04-15T05:16:19;100587.19;;;14.78;48.78
56042;BME280;48756;41.374;2.066;2023-04-15T05:18:44;100585.38;;;14.80;48.29
56042;BME280;48756;41.374;2.066;2023-04-15T05:21:10;100585.25;;;14.85;48.82
56042;BME280;48756;41.374;2.066;2023-04-15T05:23:35;100589.66;;;14.83;48.44
56042;BME280;48756;41.374;2.066;2023-04-15T05:26:01;100598.72;;;14.73;49.41
56042;BME280;48756;41.374;2.066;2023-04-15T05:28:26;100592.34;;;14.81;49.23
56042;BME280;48756;41.374;2.066;2023-04-15T05:30:52;100593.34;;;14.77;48.84
56042;BME280;48756;41.374;2.066;2023-04-15T05:33:17;100599.72;;;14.67;48.88
56042;BME280;48756;41.374;2.066;2023-04-15T05:35:43;100602.16;;;14.75;49.01
56042;BME280;48756;41.374;2.066;2023-04-15T05:38:08;100612.63;;;14.42;50.19
56042;BME280;48756;41.374;2.066;2023-04-15T05:40:33;100611.66;;;14.79;49.13
56042;BME280;48756;41.374;2.066;2023-04-15T05:42:59;100616.00;;;14.80;48.65
56042;BME280;48756;41.374;2.066;2023-04-15T05:45:24;100617.13;;;14.71;49.48
56042;BME280;48756;41.374;2.066;2023-04-15T05:47:49;100622.78;;;14.87;49.67
56042;BME280;48756;41.374;2.066;2023-04-15T05:50:17;100625.09;;;14.97;48.93
56042;BME280;48756;41.374;2.066;2023-04-15T05:52:43;100617.53;;;14.87;49.64
56042;BME280;48756;41.374;2.066;2023-04-15T05:55:09;100625.25;;;14.91;48.94
56042;BME280;48756;41.374;2.066;2023-04-15T05:57:35;100622.06;;;15.11;48.96
56042;BME280;48756;41.374;2.066;2023-04-15T06:00:02;100628.78;;;14.90;49.40
56042;BME280;48756;41.374;2.066;2023-04-15T06:02:27;100628.47;;;15.30;48.35
56042;BME280;48756;41.374;2.066;2023-04-15T06:04:52;100630.19;;;15.31;48.33
56042;BME280;48756;41.374;2.066;2023-04-15T06:07:18;100639.56;;;14.81;50.12
56042;BME280;48756;41.374;2.066;2023-04-15T06:09:43;100642.81;;;14.58;49.85
56042;BME280;48756;41.374;2.066;2023-04-15T06:12:11;100634.50;;;15.05;49.20
56042;BME280;48756;41.374;2.066;2023-04-15T06:14:37;100641.94;;;15.20;48.92
56042;BME280;48756;41.374;2.066;2023-04-15T06:17:03;100644.44;;;14.95;49.74
56042;BME280;48756;41.374;2.066;2023-04-15T06:19:28;100650.00;;;14.83;50.05
56042;BME280;48756;41.374;2.066;2023-04-15T06:21:53;100646.53;;;15.12;49.57
56042;BME280;48756;41.374;2.066;2023-04-15T06:24:18;100648.00;;;14.91;50.26
56042;BME280;48756;41.374;2.066;2023-04-15T06:26:44;100638.28;;;14.96;49.95
56042;BME280;48756;41.374;2.066;2023-04-15T06:29:09;100646.69;;;15.07;50.13
56042;BME280;48756;41.374;2.066;2023-04-15T06:31:35;100651.59;;;15.19;49.74
56042;BME280;48756;41.374;2.066;2023-04-15T06:34:00;100650.78;;;15.17;49.80
56042;BME280;48756;41.374;2.066;2023-04-15T06:36:26;100639.84;;;15.01;49.93
56042;BME280;48756;41.374;2.066;2023-04-15T06:38:51;100641.91;;;15.21;49.79
56042;BME280;48756;41.374;2.066;2023-04-15T06:41:17;100642.03;;;15.17;49.72
56042;BME280;48756;41.374;2.066;2023-04-15T06:43:42;100635.94;;;15.16;50.05
56042;BME280;48756;41.374;2.066;2023-04-15T06:46:08;100644.22;;;15.30;49.76
56042;BME280;48756;41.374;2.066;2023-04-15T06:48:34;100640.69;;;15.31;49.34
56042;BME280;48756;41.374;2.066;2023-04-15T06:50:59;100652.25;;;15.26;49.43
56042;BME280;48756;41.374;2.066;2023-04-15T06:53:25;100648.06;;;15.48;49.33
56042;BME280;48756;41.374;2.066;2023-04-15T06:55:53;100655.09;;;15.48;49.25
56042;BME280;48756;41.374;2.066;2023-04-15T06:58:18;100650.38;;;15.59;49.17
56042;BME280;48756;41.374;2.066;2023-04-15T07:00:43;100662.44;;;15.66;48.57
56042;BME280;48756;41.374;2.066;2023-04-15T07:03:10;100661.47;;;15.69;48.64
56042;BME280;48756;41.374;2.066;2023-04-15T07:05:37;100665.34;;;15.55;48.77
56042;BME280;48756;41.374;2.066;2023-04-15T07:08:02;100675.63;;;15.65;49.14
56042;BME280;48756;41.374;2.066;2023-04-15T07:10:27;100675.78;;;15.57;48.84
56042;BME280;48756;41.374;2.066;2023-04-15T07:12:53;100682.34;;;16.00;48.01
56042;BME280;48756;41.374;2.066;2023-04-15T07:15:19;100676.56;;;15.90;48.26
56042;BME280;48756;41.374;2.066;2023-04-15T07:17:44;100681.00;;;16.14;47.88
56042;BME280;48756;41.374;2.066;2023-04-15T07:20:09;100684.94;;;16.01;48.15
56042;BME280;48756;41.374;2.066;2023-04-15T07:22:35;100688.47;;;16.27;47.27
56042;BME280;48756;41.374;2.066;2023-04-15T07:25:00;100678.97;;;16.22;47.08
56042;BME280;48756;41.374;2.066;2023-04-15T07:27:28;100693.28;;;16.40;46.88
56042;BME280;48756;41.374;2.066;2023-04-15T07:29:53;100684.22;;;16.74;46.46
56042;BME280;48756;41.374;2.066;2023-04-15T07:32:22;100687.31;;;16.35;47.24
56042;BME280;48756;41.374;2.066;2023-04-15T07:34:47;100686.38;;;16.88;45.71
56042;BME280;48756;41.374;2.066;2023-04-15T07:37:12;100702.41;;;17.05;45.54
56042;BME280;48756;41.374;2.066;2023-04-15T07:39:37;100695.69;;;16.96;45.38
56042;BME280;48756;41.374;2.066;2023-04-15T07:42:03;100698.44;;;16.93;46.25
56042;BME280;48756;41.374;2.066;2023-04-15T07:44:28;100703.03;;;16.88;45.98
56042;BME280;48756;41.374;2.066;2023-04-15T07:46:54;100700.66;;;17.29;44.58
56042;BME280;48756;41.374;2.066;2023-04-15T07:49:20;100703.81;;;16.90;45.62
56042;BME280;48756;41.374;2.066;2023-04-15T07:51:46;100699.84;;;17.03;45.21
56042;BME280;48756;41.374;2.066;2023-04-15T07:54:11;100683.31;;;17.23;44.67
56042;BME280;48756;41.374;2.066;2023-04-15T07:56:36;100689.41;;;17.70;44.34
56042;BME280;48756;41.374;2.066;2023-04-15T07:59:02;100687.94;;;17.62;44.61
56042;BME280;48756;41.374;2.066;2023-04-15T08:01:37;100688.22;;;17.99;43.58
56042;BME280;48756;41.374;2.066;2023-04-15T08:04:03;100679.28;;;18.03;43.46
56042;BME280;48756;41.374;2.066;2023-04-15T08:06:28;100689.53;;;18.52;42.67
56042;BME280;48756;41.374;2.066;2023-04-15T08:08:53;100695.91;;;17.60;44.17
56042;BME280;48756;41.374;2.066;2023-04-15T08:11:19;100695.22;;;18.00;43.64
56042;BME280;48756;41.374;2.066;2023-04-15T08:13:48;100688.91;;;18.04;42.87
56042;BME280;48756;41.374;2.066;2023-04-15T08:16:15;100697.25;;;17.94;43.46
56042;BME280;48756;41.374;2.066;2023-04-15T08:18:42;100689.44;;;18.34;42.40
56042;BME280;48756;41.374;2.066;2023-04-15T08:21:07;100686.38;;;18.23;42.26
56042;BME280;48756;41.374;2.066;2023-04-15T08:23:33;100688.16;;;18.23;42.15
56042;BME280;48756;41.374;2.066;2023-04-15T08:25:58;100692.72;;;18.40;41.93
56042;BME280;48756;41.374;2.066;2023-04-15T08:28:24;100687.72;;;18.33;42.46
56042;BME280;48756;41.374;2.066;2023-04-15T08:30:49;100678.88;;;18.34;41.71
56042;BME280;48756;41.374;2.066;2023-04-15T08:33:16;100679.81;;;18.74;41.69
56042;BME280;48756;41.374;2.066;2023-04-15T08:35:41;100675.50;;;18.92;41.77
56042;BME280;48756;41.374;2.066;2023-04-15T08:38:07;100676.31;;;19.32;41.32
56042;BME280;48756;41.374;2.066;2023-04-15T08:40:34;100670.13;;;19.51;39.76
56042;BME280;48756;41.374;2.066;2023-04-15T08:43:04;100676.94;;;19.18;40.06
56042;BME280;48756;41.374;2.066;2023-04-15T08:45:32;100676.41;;;19.30;39.89
56042;BME280;48756;41.374;2.066;2023-04-15T08:47:57;100677.25;;;19.68;40.29
56042;BME280;48756;41.374;2.066;2023-04-15T08:50:24;100666.16;;;19.79;39.40
56042;BME280;48756;41.374;2.066;2023-04-15T08:52:53;100676.28;;;19.71;39.57
56042;BME280;48756;41.374;2.066;2023-04-15T08:55:18;100662.31;;;20.03;38.47
56042;BME280;48756;41.374;2.066;2023-04-15T08:57:45;100664.88;;;20.05;38.09
56042;BME280;48756;41.374;2.066;2023-04-15T09:00:11;100664.94;;;19.86;38.20
56042;BME280;48756;41.374;2.066;2023-04-15T09:02:36;100666.06;;;20.34;38.39
56042;BME280;48756;41.374;2.066;2023-04-15T09:05:02;100660.00;;;20.14;37.92
56042;BME280;48756;41.374;2.066;2023-04-15T09:07:32;100659.38;;;20.09;37.80
56042;BME280;48756;41.374;2.066;2023-04-15T09:09:57;100672.28;;;20.33;37.47
56042;BME280;48756;41.374;2.066;2023-04-15T09:12:25;100648.25;;;20.55;37.61
56042;BME280;48756;41.374;2.066;2023-04-15T09:14:51;100667.28;;;20.45;37.68
56042;BME280;48756;41.374;2.066;2023-04-15T09:17:17;100651.66;;;20.74;36.58
56042;BME280;48756;41.374;2.066;2023-04-15T09:19:43;100648.03;;;20.92;36.02
56042;BME280;48756;41.374;2.066;2023-04-15T09:22:08;100643.91;;;20.54;36.13
56042;BME280;48756;41.374;2.066;2023-04-15T09:24:35;100654.06;;;20.78;36.43
56042;BME280;48756;41.374;2.066;2023-04-15T09:27:01;100644.31;;;20.46;36.29
56042;BME280;48756;41.374;2.066;2023-04-15T09:29:27;100634.28;;;21.01;35.71
56042;BME280;48756;41.374;2.066;2023-04-15T09:31:53;100625.31;;;20.38;36.38
56042;BME280;48756;41.374;2.066;2023-04-15T09:34:18;100623.69;;;21.01;35.90
56042;BME280;48756;41.374;2.066;2023-04-15T09:39:13;100624.34;;;21.54;34.78
56042;BME280;48756;41.374;2.066;2023-04-15T09:41:38;100617.25;;;21.38;34.81
56042;BME280;48756;41.374;2.066;2023-04-15T09:44:05;100617.47;;;21.65;34.46
56042;BME280;48756;41.374;2.066;2023-04-15T09:46:43;100621.00;;;22.12;33.38
56042;BME280;48756;41.374;2.066;2023-04-15T09:49:09;100625.06;;;22.17;32.90
56042;BME280;48756;41.374;2.066;2023-04-15T09:51:35;100628.63;;;22.32;33.54
56042;BME280;48756;41.374;2.066;2023-04-15T09:54:00;100639.50;;;21.97;33.08
56042;BME280;48756;41.374;2.066;2023-04-15T09:56:31;100653.56;;;22.29;34.68
56042;BME280;48756;41.374;2.066;2023-04-15T09:58:58;100640.13;;;21.87;35.47
56042;BME280;48756;41.374;2.066;2023-04-15T10:01:24;100644.88;;;22.56;35.59
56042;BME280;48756;41.374;2.066;2023-04-15T10:03:49;100650.84;;;22.45;35.54
56042;BME280;48756;41.374;2.066;2023-04-15T10:06:15;100634.22;;;21.97;35.42
56042;BME280;48756;41.374;2.066;2023-04-15T10:08:40;100626.75;;;22.62;35.33
56042;BME280;48756;41.374;2.066;2023-04-15T10:11:06;100626.50;;;21.93;36.14
56042;BME280;48756;41.374;2.066;2023-04-15T10:13:32;100624.81;;;23.09;34.71
56042;BME280;48756;41.374;2.066;2023-04-15T10:16:03;100626.25;;;23.56;33.62
56042;BME280;48756;41.374;2.066;2023-04-15T10:18:29;100609.31;;;22.44;35.46
56042;BME280;48756;41.374;2.066;2023-04-15T10:20:57;100607.34;;;23.05;34.06
56042;BME280;48756;41.374;2.066;2023-04-15T10:23:24;100604.28;;;23.25;33.73
56042;BME280;48756;41.374;2.066;2023-04-15T10:25:50;100593.78;;;23.77;33.18
56042;BME280;48756;41.374;2.066;2023-04-15T10:28:16;100588.91;;;23.97;32.59
56042;BME280;48756;41.374;2.066;2023-04-15T10:30:42;100592.25;;;24.13;32.07
56042;BME280;48756;41.374;2.066;2023-04-15T10:33:07;100602.03;;;24.00;32.46
56042;BME280;48756;41.374;2.066;2023-04-15T10:35:33;100604.69;;;24.52;30.93
56042;BME280;48756;41.374;2.066;2023-04-15T10:37:59;100602.22;;;24.62;31.19
56042;BME280;48756;41.374;2.066;2023-04-15T10:42:53;100617.69;;;24.04;31.76
56042;BME280;48756;41.374;2.066;2023-04-15T10:45:19;100610.22;;;24.49;30.63
56042;BME280;48756;41.374;2.066;2023-04-15T10:47:45;100608.56;;;25.10;30.20
56042;BME280;48756;41.374;2.066;2023-04-15T10:50:10;100606.72;;;25.36;29.58
56042;BME280;48756;41.374;2.066;2023-04-15T10:52:36;100612.53;;;24.66;30.24
56042;BME280;48756;41.374;2.066;2023-04-15T10:57:36;100607.44;;;25.38;29.49
56042;BME280;48756;41.374;2.066;2023-04-15T11:00:08;100607.50;;;24.87;29.77
56042;BME280;48756;41.374;2.066;2023-04-15T11:02:39;100606.91;;;24.71;30.40
56042;BME280;48756;41.374;2.066;2023-04-15T11:05:05;100596.75;;;25.14;29.38
56042;BME280;48756;41.374;2.066;2023-04-15T11:12:50;100597.28;;;24.94;28.97
56042;BME280;48756;41.374;2.066;2023-04-15T11:17:50;100581.38;;;25.42;28.83
56042;BME280;48756;41.374;2.066;2023-04-15T11:20:16;100588.34;;;25.68;28.93
56042;BME280;48756;41.374;2.066;2023-04-15T11:22:49;100585.69;;;25.31;28.97
56042;BME280;48756;41.374;2.066;2023-04-15T11:27:49;100568.16;;;25.64;28.48
56042;BME280;48756;41.374;2.066;2023-04-15T11:30:18;100566.91;;;25.57;28.85
56042;BME280;48756;41.374;2.066;2023-04-15T11:32:45;100558.88;;;25.57;28.35
56042;BME280;48756;41.374;2.066;2023-04-15T11:35:10;100559.19;;;25.41;28.97
56042;BME280;48756;41.374;2.066;2023-04-15T11:37:35;100559.19;;;25.17;28.28
56042;BME280;48756;41.374;2.066;2023-04-15T11:40:01;100549.06;;;25.10;28.53
56042;BME280;48756;41.374;2.066;2023-04-15T11:42:27;100543.69;;;25.22;29.30
56042;BME280;48756;41.374;2.066;2023-04-15T11:45:05;100540.22;;;25.57;28.29
56042;BME280;48756;41.374;2.066;2023-04-15T11:47:30;100540.75;;;25.97;27.47
56042;BME280;48756;41.374;2.066;2023-04-15T11:49:55;100544.66;;;25.69;28.58
56042;BME280;48756;41.374;2.066;2023-04-15T11:52:21;100540.09;;;26.29;26.87
56042;BME280;48756;41.374;2.066;2023-04-15T11:54:47;100532.09;;;26.62;26.84
56042;BME280;48756;41.374;2.066;2023-04-15T11:57:13;100519.44;;;26.08;27.42
56042;BME280;48756;41.374;2.066;2023-04-15T11:59:41;100522.81;;;26.10;27.35
56042;BME280;48756;41.374;2.066;2023-04-15T12:02:10;100524.97;;;24.98;29.29
56042;BME280;48756;41.374;2.066;2023-04-15T12:04:36;100522.47;;;25.69;28.51
56042;BME280;48756;41.374;2.066;2023-04-15T12:07:05;100513.59;;;24.96;28.73
56042;BME280;48756;41.374;2.066;2023-04-15T12:09:36;100509.81;;;25.12;29.03
56042;BME280;48756;41.374;2.066;2023-04-15T12:12:01;100510.72;;;25.23;28.45
56042;BME280;48756;41.374;2.066;2023-04-15T12:14:28;100509.47;;;26.21;27.69
56042;BME280;48756;41.374;2.066;2023-04-15T12:16:55;100519.78;;;24.48;29.75
56042;BME280;48756;41.374;2.066;2023-04-15T12:19:35;100510.25;;;23.93;30.64
56042;BME280;48756;41.374;2.066;2023-04-15T12:22:01;100507.75;;;24.29;30.15
56042;BME280;48756;41.374;2.066;2023-04-15T12:24:28;100524.13;;;24.23;30.42
56042;BME280;48756;41.374;2.066;2023-04-15T12:26:56;100516.53;;;24.68;30.11
56042;BME280;48756;41.374;2.066;2023-04-15T12:29:28;100529.44;;;25.11;30.30
56042;BME280;48756;41.374;2.066;2023-04-15T12:31:56;100538.09;;;25.14;29.58
56042;BME280;48756;41.374;2.066;2023-04-15T12:34:25;100536.28;;;24.53;30.43
56042;BME280;48756;41.374;2.066;2023-04-15T12:36:51;100535.06;;;24.19;32.50
56042;BME280;48756;41.374;2.066;2023-04-15T12:39:16;100541.44;;;23.78;31.83
56042;BME280;48756;41.374;2.066;2023-04-15T12:41:41;100533.03;;;23.84;32.28
56042;BME280;48756;41.374;2.066;2023-04-15T12:44:07;100534.78;;;23.71;32.26
56042;BME280;48756;41.374;2.066;2023-04-15T12:46:32;100534.59;;;23.20;32.20
56042;BME280;48756;41.374;2.066;2023-04-15T12:48:57;100517.38;;;23.92;31.69
56042;BME280;48756;41.374;2.066;2023-04-15T12:51:23;100526.09;;;23.81;32.14
56042;BME280;48756;41.374;2.066;2023-04-15T12:53:50;100516.97;;;24.98;30.96
56042;BME280;48756;41.374;2.066;2023-04-15T12:56:15;100515.91;;;25.14;30.42
56042;BME280;48756;41.374;2.066;2023-04-15T12:58:41;100512.34;;;24.77;30.80
56042;BME280;48756;41.374;2.066;2023-04-15T13:01:07;100521.34;;;23.99;32.51